Time;durP1;ratioP1;P1;durP2;ratioP2;P2;SDS_P1;SDS_P2;PMS_P1;PMS_P2;Temp;Humidity;BMP_temperature;BMP_pressure;BME280_temperature;BME280_humidity;BME280_pressure;Samples;Min_cycle;Max_cycle;Signal;HPM_P1;HPM_P2
2022/01/27 00:01:07;;;;;;;;;29.40;28.60;;;;;;;;5250447;28;8762;-72
2022/01/27 00:06:34;;;;;;;;;41.00;35.00;;;;;;;;5268431;28;8810;-71
2022/01/27 00:09:42;;;;;;;;;47.75;45.00;;;;;;;;5250820;28;8795;-71
2022/01/27 00:12:17;;;;;;;;;44.25;42.75;;;;;;;;5233567;28;8783;-72
2022/01/27 00:14:57;;;;;;;;;33.60;31.40;;;;;;;;5218109;28;8925;-72
2022/01/27 00:17:31;;;;;;;;;25.40;25.00;;;;;;;;5268659;28;8798;-73
2022/01/27 00:20:02;;;;;;;;;33.40;33.40;;;;;;;;5234180;28;8901;-73
2022/01/27 00:22:34;;;;;;;;;34.60;32.00;;;;;;;;5233482;28;8787;-73
2022/01/27 00:25:24;;;;;;;;;28.40;28.40;;;;;;;;5236098;28;8759;-73
2022/01/27 00:27:55;;;;;;;;;25.60;22.20;;;;;;;;5216973;28;8778;-73
2022/01/27 00:30:27;;;;;;;;;19.00;16.20;;;;;;;;5233664;28;8999;-73
2022/01/27 00:32:59;;;;;;;;;14.80;14.60;;;;;;;;5217526;28;8783;-72
2022/01/27 00:35:31;;;;;;;;;21.20;18.60;;;;;;;;5234196;28;8762;-72
2022/01/27 00:38:03;;;;;;;;;24.20;23.80;;;;;;;;5250165;28;8763;-72
2022/01/27 00:40:53;;;;;;;;;32.40;25.60;;;;;;;;5236269;28;8810;-72
2022/01/27 00:43:24;;;;;;;;;35.40;33.40;;;;;;;;5250054;28;8791;-71
2022/01/27 00:45:56;;;;;;;;;42.00;40.50;;;;;;;;5216436;28;8790;-72
2022/01/27 00:48:27;;;;;;;;;51.75;44.50;;;;;;;;5268590;28;8775;-72
2022/01/27 00:51:01;;;;;;;;;60.00;51.25;;;;;;;;5216669;28;8802;-71
2022/01/27 00:53:46;;;;;;;;;30.75;29.75;;;;;;;;5233263;28;8809;-74
2022/01/27 00:59:56;;;;;;;;;35.00;33.00;;;;;;;;5232654;28;8775;-74
2022/01/27 01:02:22;;;;;;;;;40.75;38.25;;;;;;;;5215368;28;8806;-74
2022/01/27 01:07:43;;;;;;;;;39.50;38.50;;;;;;;;5232917;28;8806;-73
2022/01/27 01:16:18;;;;;;;;;35.00;32.00;;;;;;;;5232701;28;8790;-74
2022/01/27 01:18:54;;;;;;;;;32.75;31.50;;;;;;;;5215845;28;8781;-72
2022/01/27 01:22:07;;;;;;;;;24.20;23.60;;;;;;;;5215985;28;8775;-72
2022/01/27 01:38:21;;;;;;;;;24.80;24.80;;;;;;;;5232595;28;8905;-71
2022/01/27 01:40:53;;;;;;;;;32.00;26.25;;;;;;;;5232614;28;8791;-72
2022/01/27 01:43:25;;;;;;;;;30.50;30.50;;;;;;;;5232592;28;8790;-71
2022/01/27 01:45:56;;;;;;;;;35.20;34.40;;;;;;;;5215896;28;9592;-71
2022/01/27 01:48:27;;;;;;;;;17.40;16.20;;;;;;;;5249481;28;8783;-72
2022/01/27 01:51:23;;;;;;;;;29.50;28.75;;;;;;;;5235582;28;8771;-71
2022/01/27 01:53:55;;;;;;;;;35.25;33.50;;;;;;;;5232592;28;9425;-71
2022/01/27 01:56:26;;;;;;;;;41.25;39.25;;;;;;;;5232577;28;8892;-72
2022/01/27 01:58:58;;;;;;;;;52.50;46.00;;;;;;;;5232756;28;8767;-72
2022/01/27 02:01:29;;;;;;;;;67.50;53.50;;;;;;;;5266616;28;8774;-72
2022/01/27 02:04:05;;;;;;;;;35.25;33.50;;;;;;;;5216158;28;9430;-72
2022/01/27 02:06:47;;;;;;;;;33.00;31.00;;;;;;;;5232457;28;8928;-71
2022/01/27 02:18:00;;;;;;;;;29.75;29.00;;;;;;;;5253074;28;8787;-75
2022/01/27 02:20:32;;;;;;;;;30.00;30.00;;;;;;;;5236517;28;8790;-76
2022/01/27 02:23:05;;;;;;;;;31.80;31.20;;;;;;;;5219963;28;8770;-76
2022/01/27 02:25:37;;;;;;;;;29.75;29.50;;;;;;;;5236069;28;9582;-77
2022/01/27 02:28:09;;;;;;;;;32.75;31.00;;;;;;;;5220036;28;8802;-77
2022/01/27 02:30:41;;;;;;;;;37.25;34.50;;;;;;;;5237740;28;8784;-75
2022/01/27 02:33:12;;;;;;;;;36.50;36.25;;;;;;;;5221861;28;8794;-76
2022/01/27 02:36:04;;;;;;;;;30.25;30.00;;;;;;;;5239043;28;8786;-76
2022/01/27 02:38:54;;;;;;;;;22.00;22.00;;;;;;;;5238530;28;8755;-74
2022/01/27 02:41:50;;;;;;;;;27.25;27.25;;;;;;;;5239007;28;8771;-74
2022/01/27 02:44:30;;;;;;;;;20.25;20.25;;;;;;;;5235791;28;8794;-75
2022/01/27 02:47:02;;;;;;;;;35.50;35.25;;;;;;;;5219099;28;8817;-74
2022/01/27 02:49:34;;;;;;;;;21.00;19.00;;;;;;;;5218649;28;8983;-75
2022/01/27 02:52:23;;;;;;;;;27.75;26.75;;;;;;;;5237602;28;8779;-75
2022/01/27 02:54:55;;;;;;;;;27.50;25.00;;;;;;;;5218935;28;8758;-75
2022/01/27 02:57:26;;;;;;;;;29.50;29.00;;;;;;;;5252575;28;8767;-74
2022/01/27 02:59:57;;;;;;;;;21.00;20.50;;;;;;;;5235378;28;8855;-75
2022/01/27 03:02:29;;;;;;;;;44.00;38.75;;;;;;;;5218726;28;8767;-77
2022/01/27 03:05:01;;;;;;;;;61.75;53.00;;;;;;;;5235060;28;8790;-75
2022/01/27 03:07:34;;;;;;;;;64.50;53.75;;;;;;;;5218720;28;8810;-75
2022/01/27 03:10:05;;;;;;;;;44.50;43.00;;;;;;;;5218651;28;8921;-74
2022/01/27 03:12:38;;;;;;;;;38.00;38.00;;;;;;;;5251578;28;8778;-75
2022/01/27 03:15:28;;;;;;;;;38.00;37.00;;;;;;;;5237427;28;8793;-75
2022/01/27 03:18:00;;;;;;;;;33.25;31.50;;;;;;;;5234610;28;8805;-75
2022/01/27 03:20:34;;;;;;;;;27.50;25.25;;;;;;;;5235062;28;8855;-74
2022/01/27 03:23:07;;;;;;;;;41.25;39.50;;;;;;;;5251900;28;8793;-74
2022/01/27 03:25:38;;;;;;;;;56.25;48.25;;;;;;;;5218151;28;8779;-74
2022/01/27 03:28:11;;;;;;;;;59.75;49.00;;;;;;;;5217957;28;8855;-72
2022/01/27 03:30:42;;;;;;;;;45.50;42.50;;;;;;;;5217662;28;8816;-72
2022/01/27 03:33:13;;;;;;;;;48.25;44.50;;;;;;;;5217921;28;8904;-73
2022/01/27 03:35:45;;;;;;;;;35.50;35.50;;;;;;;;5218384;28;8791;-73
2022/01/27 03:38:16;;;;;;;;;32.00;30.50;;;;;;;;5217784;28;8771;-73
2022/01/27 03:40:47;;;;;;;;;37.00;34.50;;;;;;;;5218851;28;8805;-74
2022/01/27 03:43:19;;;;;;;;;39.00;36.00;;;;;;;;5218347;28;8814;-73
2022/01/27 03:45:51;;;;;;;;;33.00;32.00;;;;;;;;5234361;28;8810;-75
2022/01/27 03:48:22;;;;;;;;;41.50;37.00;;;;;;;;5218294;28;8767;-73
2022/01/27 03:50:54;;;;;;;;;36.00;33.25;;;;;;;;5233989;28;8789;-73
2022/01/27 03:53:25;;;;;;;;;27.25;27.25;;;;;;;;5217630;28;8779;-73
2022/01/27 03:56:15;;;;;;;;;23.50;23.50;;;;;;;;5236826;28;8913;-73
2022/01/27 03:58:47;;;;;;;;;27.75;24.75;;;;;;;;5218195;28;8795;-72
2022/01/27 04:01:19;;;;;;;;;36.75;34.00;;;;;;;;5217361;28;8771;-73
2022/01/27 04:03:53;;;;;;;;;27.25;27.00;;;;;;;;5217477;28;8779;-74
2022/01/27 04:06:43;;;;;;;;;34.75;29.00;;;;;;;;5236683;28;9567;-74
2022/01/27 04:09:15;;;;;;;;;32.75;31.50;;;;;;;;5250616;28;9535;-74
2022/01/27 04:11:47;;;;;;;;;32.00;28.50;;;;;;;;5233789;28;8787;-73
2022/01/27 04:14:18;;;;;;;;;32.25;31.50;;;;;;;;5233823;28;9487;-75
2022/01/27 04:16:50;;;;;;;;;24.50;24.50;;;;;;;;5233473;28;8786;-74
2022/01/27 04:19:21;;;;;;;;;33.00;31.00;;;;;;;;5250417;28;8778;-74
2022/01/27 04:22:11;;;;;;;;;36.25;32.75;;;;;;;;5236224;28;8778;-73
2022/01/27 04:24:43;;;;;;;;;30.00;29.00;;;;;;;;5249891;28;8787;-75
2022/01/27 04:27:22;;;;;;;;;31.75;29.50;;;;;;;;5216771;28;8795;-74
2022/01/27 04:29:54;;;;;;;;;21.00;19.25;;;;;;;;5234270;28;8793;-74
2022/01/27 04:32:32;;;;;;;;;32.25;29.25;;;;;;;;5216734;28;8832;-74
2022/01/27 04:35:06;;;;;;;;;39.25;32.75;;;;;;;;5216997;28;8783;-74
2022/01/27 04:37:42;;;;;;;;;45.75;41.50;;;;;;;;5232926;28;8789;-74
2022/01/27 04:40:40;;;;;;;;;50.75;45.50;;;;;;;;5235547;28;8767;-74
2022/01/27 04:43:24;;;;;;;;;41.75;41.50;;;;;;;;5216945;28;9028;-74
2022/01/27 04:48:48;;;;;;;;;48.00;45.25;;;;;;;;5249487;28;9307;-76
2022/01/27 04:51:23;;;;;;;;;58.75;49.00;;;;;;;;5233427;28;8810;-74
2022/01/27 04:54:02;;;;;;;;;36.50;35.00;;;;;;;;5249581;28;8782;-74
2022/01/27 04:56:53;;;;;;;;;26.00;26.00;;;;;;;;5235222;28;8775;-76
2022/01/27 04:59:28;;;;;;;;;34.50;33.50;;;;;;;;5232756;28;9501;-76
2022/01/27 05:02:04;;;;;;;;;30.00;29.50;;;;;;;;5249511;28;8810;-77
2022/01/27 05:04:41;;;;;;;;;28.00;28.00;;;;;;;;5216215;28;8782;-72
2022/01/27 05:07:12;;;;;;;;;21.25;19.50;;;;;;;;5250160;28;8797;-71
2022/01/27 05:09:57;;;;;;;;;21.75;21.50;;;;;;;;5216597;28;8759;-77
2022/01/27 05:12:48;;;;;;;;;19.25;17.50;;;;;;;;5216704;28;8783;-71
2022/01/27 05:15:19;;;;;;;;;34.75;32.00;;;;;;;;5249673;28;8821;-74
2022/01/27 05:17:51;;;;;;;;;30.25;29.50;;;;;;;;5216668;28;8782;-74
2022/01/27 05:20:22;;;;;;;;;31.50;31.00;;;;;;;;5216018;28;9563;-74
2022/01/27 05:22:53;;;;;;;;;22.75;19.75;;;;;;;;5216509;28;8938;-75
2022/01/27 05:25:24;;;;;;;;;34.50;33.75;;;;;;;;5232171;27;9636;-76
2022/01/27 05:27:55;;;;;;;;;30.25;28.00;;;;;;;;5267787;28;8866;-74
2022/01/27 05:30:27;;;;;;;;;22.67;21.67;;;;;;;;5251886;28;8784;-76
2022/01/27 05:32:58;;;;;;;;;26.75;25.75;;;;;;;;5235143;28;10809;-75
2022/01/27 05:35:29;;;;;;;;;28.00;24.33;;;;;;;;5251267;28;8800;-75
2022/01/27 05:38:01;;;;;;;;;40.50;36.50;;;;;;;;5250892;28;10678;-76
2022/01/27 05:40:32;;;;;;;;;27.25;27.00;;;;;;;;5234838;28;9511;-72
2022/01/27 05:43:03;;;;;;;;;78.00;65.33;;;;;;;;5251738;28;8795;-75
2022/01/27 05:45:53;;;;;;;;;32.50;32.50;;;;;;;;5267743;28;11461;-76
2022/01/27 05:48:24;;;;;;;;;30.00;28.00;;;;;;;;5228725;28;8814;-75
2022/01/27 05:50:56;;;;;;;;;32.00;29.50;;;;;;;;5215549;28;9474;-76
2022/01/27 05:53:30;;;;;;;;;32.50;32.25;;;;;;;;5251485;28;9486;-76
2022/01/27 05:56:01;;;;;;;;;23.25;22.25;;;;;;;;5246526;28;8804;-77
2022/01/27 05:58:33;;;;;;;;;29.75;28.25;;;;;;;;5239270;28;8800;-76
2022/01/27 06:05:27;;;;;;;;;25.00;24.25;;;;;;;;5292078;28;9372;-75
2022/01/27 06:07:58;;;;;;;;;27.00;24.25;;;;;;;;5273619;28;8800;-79
2022/01/27 06:10:29;;;;;;;;;71.33;58.67;;;;;;;;5256784;28;8825;-76
2022/01/27 06:13:00;;;;;;;;;40.33;36.67;;;;;;;;5273988;28;9637;-76
2022/01/27 06:15:31;;;;;;;;;31.75;30.25;;;;;;;;5291811;28;10890;-75
2022/01/27 06:18:03;;;;;;;;;27.75;27.75;;;;;;;;5240356;28;9568;-71
2022/01/27 06:20:36;;;;;;;;;21.00;20.75;;;;;;;;5256294;28;8784;-78
2022/01/27 06:23:07;;;;;;;;;27.75;27.75;;;;;;;;5256509;28;8861;-77
2022/01/27 06:25:39;;;;;;;;;30.00;26.50;;;;;;;;5239828;28;8777;-79
2022/01/27 06:28:10;;;;;;;;;21.25;21.25;;;;;;;;5240115;28;9452;-80
2022/01/27 06:30:44;;;;;;;;;26.75;21.75;;;;;;;;5273809;28;8819;-78
2022/01/27 06:33:15;;;;;;;;;25.50;25.00;;;;;;;;5256317;28;8784;-77
2022/01/27 06:35:47;;;;;;;;;18.25;16.00;;;;;;;;5256278;28;8899;-77
2022/01/27 06:38:18;;;;;;;;;32.00;31.25;;;;;;;;5273007;28;8788;-78
2022/01/27 06:40:49;;;;;;;;;25.75;24.25;;;;;;;;5240049;28;8807;-78
2022/01/27 06:43:21;;;;;;;;;23.50;22.75;;;;;;;;5273321;28;8838;-76
2022/01/27 06:45:52;;;;;;;;;14.75;13.00;;;;;;;;5255629;28;8844;-76
2022/01/27 06:48:23;;;;;;;;;25.50;25.00;;;;;;;;5239719;28;8776;-76
2022/01/27 06:50:56;;;;;;;;;27.00;26.50;;;;;;;;5239383;28;8776;-77
2022/01/27 06:53:27;;;;;;;;;30.67;29.33;;;;;;;;5272611;28;9536;-76
2022/01/27 06:56:00;;;;;;;;;21.00;20.75;;;;;;;;5272791;28;8914;-76
2022/01/27 06:58:50;;;;;;;;;30.50;28.50;;;;;;;;5272681;28;8907;-77
2022/01/27 07:01:22;;;;;;;;;27.00;25.75;;;;;;;;5272173;28;8800;-77
2022/01/27 07:03:53;;;;;;;;;28.25;27.00;;;;;;;;5238994;28;8812;-77
2022/01/27 07:06:25;;;;;;;;;38.50;36.75;;;;;;;;5256016;28;8861;-77
2022/01/27 07:08:56;;;;;;;;;34.50;26.25;;;;;;;;5239404;28;8772;-77
2022/01/27 07:11:28;;;;;;;;;31.50;30.00;;;;;;;;5255724;28;8789;-77
2022/01/27 07:14:00;;;;;;;;;30.50;29.00;;;;;;;;5239632;28;8789;-77
2022/01/27 07:16:33;;;;;;;;;22.00;21.00;;;;;;;;5238692;28;8874;-80
2022/01/27 07:19:05;;;;;;;;;18.25;18.25;;;;;;;;5239078;28;8799;-77
2022/01/27 07:21:37;;;;;;;;;31.75;30.25;;;;;;;;5255806;28;8774;-77
2022/01/27 07:24:09;;;;;;;;;36.50;34.50;;;;;;;;5238970;28;8769;-77
2022/01/27 07:26:41;;;;;;;;;17.75;17.25;;;;;;;;5272033;28;8812;-74
2022/01/27 07:29:12;;;;;;;;;21.00;20.75;;;;;;;;5255322;28;8787;-71
2022/01/27 07:31:43;;;;;;;;;35.00;32.75;;;;;;;;5254594;28;9492;-80
2022/01/27 07:34:15;;;;;;;;;41.50;39.75;;;;;;;;5238961;28;8848;-79
2022/01/27 07:36:47;;;;;;;;;54.50;45.75;;;;;;;;5255191;28;9514;-78
2022/01/27 07:39:19;;;;;;;;;39.75;38.75;;;;;;;;5255136;28;8764;-77
2022/01/27 07:42:09;;;;;;;;;29.00;27.75;;;;;;;;5258190;28;8788;-77
2022/01/27 07:44:41;;;;;;;;;29.00;28.00;;;;;;;;5238669;28;8934;-77
2022/01/27 07:47:13;;;;;;;;;29.00;29.00;;;;;;;;5238163;28;8817;-77
2022/01/27 07:50:04;;;;;;;;;28.00;27.50;;;;;;;;5257615;28;8784;-77
2022/01/27 07:52:36;;;;;;;;;46.25;44.00;;;;;;;;5255358;28;8779;-77
2022/01/27 07:55:09;;;;;;;;;43.75;36.75;;;;;;;;5238203;28;8829;-77
2022/01/27 07:57:41;;;;;;;;;40.50;39.25;;;;;;;;5238131;28;8915;-77
2022/01/27 08:00:12;;;;;;;;;33.60;31.00;;;;;;;;5238722;28;8853;-77
2022/01/27 08:02:45;;;;;;;;;31.75;30.00;;;;;;;;5255271;28;8782;-76
2022/01/27 08:05:16;;;;;;;;;25.60;25.60;;;;;;;;5254846;28;8768;-76
2022/01/27 08:07:47;;;;;;;;;32.25;31.75;;;;;;;;5237948;28;8812;-76
2022/01/27 08:10:39;;;;;;;;;31.60;29.60;;;;;;;;5257804;28;8805;-77
2022/01/27 08:13:10;;;;;;;;;41.25;39.25;;;;;;;;5236551;28;8808;-75
2022/01/27 08:15:43;;;;;;;;;34.00;31.75;;;;;;;;5237891;28;9572;-77
2022/01/27 08:18:15;;;;;;;;;27.00;24.75;;;;;;;;5237928;28;8907;-78
2022/01/27 08:21:05;;;;;;;;;28.50;27.75;;;;;;;;5257608;28;8784;-77
2022/01/27 08:23:56;;;;;;;;;32.00;32.00;;;;;;;;5257144;28;8768;-78
2022/01/27 08:26:37;;;;;;;;;29.00;28.50;;;;;;;;5255336;28;8812;-78
2022/01/27 08:29:15;;;;;;;;;41.50;39.25;;;;;;;;5254976;28;8772;-79
2022/01/27 08:32:09;;;;;;;;;38.50;36.00;;;;;;;;5256755;28;8812;-77
2022/01/27 08:34:41;;;;;;;;;48.00;43.75;;;;;;;;5237942;28;8777;-79
2022/01/27 08:37:14;;;;;;;;;36.75;31.50;;;;;;;;5237750;28;8784;-78
2022/01/27 08:39:46;;;;;;;;;47.75;43.00;;;;;;;;5237426;28;8791;-78
2022/01/27 08:42:17;;;;;;;;;42.50;41.50;;;;;;;;5237689;28;8807;-79
2022/01/27 08:44:48;;;;;;;;;38.25;34.00;;;;;;;;5237220;28;8788;-78
2022/01/27 08:47:19;;;;;;;;;43.00;39.25;;;;;;;;5236828;28;8835;-78
2022/01/27 08:49:50;;;;;;;;;25.00;21.33;;;;;;;;5237178;28;9499;-77
2022/01/27 08:52:21;;;;;;;;;54.25;48.00;;;;;;;;5253783;28;9821;-78
2022/01/27 08:54:52;;;;;;;;;37.75;34.50;;;;;;;;5236863;28;8764;-78
2022/01/27 08:57:23;;;;;;;;;43.25;39.75;;;;;;;;5237343;28;8787;-78
2022/01/27 08:59:55;;;;;;;;;51.50;45.00;;;;;;;;5236963;28;8787;-79
2022/01/27 09:02:26;;;;;;;;;42.00;41.75;;;;;;;;5237046;28;8831;-78
2022/01/27 09:04:57;;;;;;;;;43.50;36.00;;;;;;;;5237204;28;8848;-78
2022/01/27 09:07:28;;;;;;;;;37.25;34.50;;;;;;;;5237078;28;8820;-78
2022/01/27 09:09:59;;;;;;;;;42.50;38.75;;;;;;;;5237366;28;8793;-78
2022/01/27 09:12:30;;;;;;;;;31.00;29.50;;;;;;;;5236944;28;8797;-79
2022/01/27 09:15:03;;;;;;;;;25.00;22.75;;;;;;;;5236933;28;8907;-77
2022/01/27 09:17:39;;;;;;;;;33.25;32.00;;;;;;;;5236786;28;8864;-77
2022/01/27 09:20:12;;;;;;;;;22.50;20.75;;;;;;;;5254429;28;8784;-78
2022/01/27 09:22:43;;;;;;;;;48.00;43.25;;;;;;;;5236807;28;8788;-80
2022/01/27 09:25:19;;;;;;;;;57.75;49.50;;;;;;;;5253224;28;9491;-78
2022/01/27 09:27:52;;;;;;;;;44.75;42.75;;;;;;;;5253880;28;8780;-79
2022/01/27 09:30:23;;;;;;;;;38.75;36.75;;;;;;;;5236578;28;8757;-79
2022/01/27 09:32:56;;;;;;;;;35.40;34.00;;;;;;;;5237353;28;8780;-79
2022/01/27 09:35:28;;;;;;;;;40.50;36.75;;;;;;;;5237441;28;8769;-79
2022/01/27 09:37:59;;;;;;;;;33.00;31.00;;;;;;;;5236878;28;8765;-79
2022/01/27 09:40:50;;;;;;;;;48.75;46.25;;;;;;;;5255820;28;8765;-78
2022/01/27 09:43:22;;;;;;;;;32.50;29.50;;;;;;;;5253519;28;8779;-78
2022/01/27 09:45:55;;;;;;;;;45.00;40.50;;;;;;;;5236400;28;8789;-79
2022/01/27 09:48:35;;;;;;;;;51.50;46.00;;;;;;;;5237336;28;8780;-80
2022/01/27 09:53:43;;;;;;;;;57.50;48.75;;;;;;;;5253102;28;8772;-78
2022/01/27 09:56:14;;;;;;;;;27.25;26.50;;;;;;;;5236273;28;8781;-78
2022/01/27 09:58:46;;;;;;;;;40.75;38.75;;;;;;;;5236579;28;8790;-79
2022/01/27 10:01:17;;;;;;;;;26.00;24.50;;;;;;;;5269787;28;8773;-77
2022/01/27 10:03:56;;;;;;;;;26.50;22.00;;;;;;;;5253543;28;8773;-78
2022/01/27 10:06:30;;;;;;;;;40.00;39.00;;;;;;;;5236081;28;8820;-79
2022/01/27 10:09:12;;;;;;;;;36.40;33.20;;;;;;;;5255138;28;8773;-78
2022/01/27 10:11:46;;;;;;;;;33.00;32.80;;;;;;;;5278820;28;8785;-78
2022/01/27 10:14:22;;;;;;;;;21.40;21.00;;;;;;;;5246922;28;8784;-78
2022/01/27 10:16:59;;;;;;;;;30.00;29.20;;;;;;;;5241516;28;8780;-78
2022/01/27 10:19:30;;;;;;;;;38.60;32.60;;;;;;;;5236304;28;8800;-79
2022/01/27 10:22:06;;;;;;;;;30.00;28.40;;;;;;;;5252871;28;8804;-78
2022/01/27 10:24:38;;;;;;;;;26.20;24.80;;;;;;;;5236523;28;8848;-80
2022/01/27 10:27:28;;;;;;;;;34.40;30.20;;;;;;;;5236201;28;8889;-79
2022/01/27 10:30:35;;;;;;;;;28.20;28.20;;;;;;;;5253491;28;8915;-76
2022/01/27 10:32:54;;;;;;;;;24.00;23.80;;;;;;;;5252721;28;8784;-79
2022/01/27 10:35:27;;;;;;;;;30.40;30.40;;;;;;;;5253212;28;8945;-78
2022/01/27 10:38:04;;;;;;;;;27.40;26.60;;;;;;;;5239515;28;8810;-78
2022/01/27 10:40:41;;;;;;;;;24.40;24.40;;;;;;;;5241036;28;8776;-78
2022/01/27 10:43:20;;;;;;;;;15.60;15.60;;;;;;;;5256024;28;8772;-78
2022/01/27 10:48:59;;;;;;;;;31.80;31.60;;;;;;;;5256765;28;8903;-80
2022/01/27 10:51:38;;;;;;;;;30.80;30.40;;;;;;;;5256206;28;8816;-79
2022/01/27 10:54:20;;;;;;;;;31.20;30.60;;;;;;;;5256566;28;8773;-79
2022/01/27 10:56:51;;;;;;;;;24.40;22.40;;;;;;;;5272935;28;8816;-80
2022/01/27 10:59:22;;;;;;;;;34.60;31.40;;;;;;;;5256221;28;8790;-79
2022/01/27 11:01:55;;;;;;;;;32.20;31.80;;;;;;;;5239161;28;8816;-79
2022/01/27 11:04:37;;;;;;;;;28.40;25.80;;;;;;;;5240262;28;8815;-79
2022/01/27 11:07:12;;;;;;;;;30.40;28.80;;;;;;;;5239343;28;8805;-79
2022/01/27 11:10:01;;;;;;;;;34.40;32.20;;;;;;;;5258647;28;8803;-79
2022/01/27 11:12:33;;;;;;;;;30.60;30.20;;;;;;;;5239517;28;9519;-78
2022/01/27 11:15:04;;;;;;;;;30.20;28.80;;;;;;;;5255805;28;8785;-78
2022/01/27 11:17:37;;;;;;;;;30.40;29.80;;;;;;;;5239180;28;8777;-79
2022/01/27 11:28:03;;;;;;;;;31.00;30.60;;;;;;;;5255311;28;9576;-80
2022/01/27 11:30:54;;;;;;;;;31.80;30.80;;;;;;;;5255414;28;8819;-80
2022/01/27 11:33:33;;;;;;;;;33.60;31.00;;;;;;;;5239313;28;8776;-80
2022/01/27 11:36:05;;;;;;;;;35.00;32.40;;;;;;;;5238792;28;8791;-79
2022/01/27 11:38:42;;;;;;;;;26.40;25.60;;;;;;;;5255598;28;8919;-79
2022/01/27 11:41:32;;;;;;;;;28.80;28.40;;;;;;;;5254797;28;8773;-79
2022/01/27 11:44:25;;;;;;;;;38.60;38.20;;;;;;;;5257685;28;8772;-79
2022/01/27 11:47:11;;;;;;;;;46.25;44.25;;;;;;;;5271491;28;8812;-79
2022/01/27 11:49:56;;;;;;;;;41.80;41.20;;;;;;;;5255304;28;8834;-79
2022/01/27 11:52:29;;;;;;;;;45.25;43.00;;;;;;;;5255874;28;8776;-79
2022/01/27 11:55:19;;;;;;;;;64.25;51.00;;;;;;;;5255478;28;8760;-79
2022/01/27 11:57:50;;;;;;;;;47.75;46.00;;;;;;;;5238854;28;9057;-79
2022/01/27 12:00:23;;;;;;;;;53.75;47.75;;;;;;;;5254547;28;8764;-79
2022/01/27 12:03:01;;;;;;;;;46.75;45.50;;;;;;;;5238119;28;9409;-78
2022/01/27 12:05:32;;;;;;;;;56.50;50.50;;;;;;;;5255610;28;8810;-78
2022/01/27 12:08:09;;;;;;;;;52.33;46.67;;;;;;;;5254638;28;8789;-79
2022/01/27 12:11:02;;;;;;;;;78.00;62.50;;;;;;;;5257005;28;8787;-77
2022/01/27 12:13:41;;;;;;;;;77.50;64.50;;;;;;;;5237937;28;9487;-78
2022/01/27 12:19:12;;;;;;;;;74.75;62.50;;;;;;;;5271504;28;8807;-76
2022/01/27 12:21:46;;;;;;;;;70.50;58.75;;;;;;;;5271331;28;8785;-76
2022/01/27 12:24:28;;;;;;;;;83.75;65.75;;;;;;;;5237760;28;8793;-77
2022/01/27 12:27:01;;;;;;;;;74.00;58.33;;;;;;;;5255117;28;8796;-77
2022/01/27 12:29:42;;;;;;;;;82.75;68.75;;;;;;;;5237507;28;9144;-78
2022/01/27 12:32:16;;;;;;;;;71.00;57.75;;;;;;;;5255254;28;8924;-78
2022/01/27 12:34:49;;;;;;;;;68.00;57.75;;;;;;;;5238308;28;9536;-78
2022/01/27 12:37:23;;;;;;;;;58.00;50.25;;;;;;;;5238476;28;8781;-78
2022/01/27 12:39:59;;;;;;;;;57.50;50.25;;;;;;;;5289615;28;8776;-79
2022/01/27 12:42:39;;;;;;;;;72.00;61.50;;;;;;;;5238041;28;9467;-78
2022/01/27 12:45:13;;;;;;;;;60.00;49.50;;;;;;;;5254667;28;8792;-78
2022/01/27 12:47:48;;;;;;;;;56.25;48.50;;;;;;;;5237727;28;8797;-79
2022/01/27 12:50:22;;;;;;;;;35.25;34.75;;;;;;;;5270924;28;8780;-78
2022/01/27 12:53:13;;;;;;;;;47.75;42.25;;;;;;;;5257052;28;8776;-78
2022/01/27 12:55:45;;;;;;;;;45.50;42.50;;;;;;;;5253906;28;8799;-79
2022/01/27 12:58:17;;;;;;;;;41.00;40.00;;;;;;;;5253866;28;8776;-78
2022/01/27 13:01:10;;;;;;;;;48.75;45.25;;;;;;;;5256525;28;8833;-78
2022/01/27 13:03:58;;;;;;;;;63.75;51.50;;;;;;;;5254477;28;9024;-79
2022/01/27 13:06:30;;;;;;;;;82.50;66.50;;;;;;;;5253471;28;8827;-78
2022/01/27 13:09:13;;;;;;;;;82.67;66.00;;;;;;;;5270648;28;8934;-78
2022/01/27 13:11:46;;;;;;;;;84.00;67.67;;;;;;;;5254168;28;9493;-78
2022/01/27 13:14:17;;;;;;;;;71.67;58.67;;;;;;;;5253668;28;9820;-78
2022/01/27 13:16:54;;;;;;;;;82.33;67.00;;;;;;;;5254129;28;9109;-77
2022/01/27 13:19:42;;;;;;;;;88.67;71.33;;;;;;;;5253713;28;9251;-78
2022/01/27 13:22:17;;;;;;;;;86.33;69.67;;;;;;;;5253786;28;9549;-78
2022/01/27 13:24:51;;;;;;;;;87.00;69.25;;;;;;;;5236678;28;9666;-78
2022/01/27 13:27:22;;;;;;;;;92.33;72.33;;;;;;;;5253537;28;10084;-78
2022/01/27 13:29:57;;;;;;;;;73.67;61.00;;;;;;;;5236873;28;9542;-78
2022/01/27 13:32:29;;;;;;;;;90.67;68.00;;;;;;;;5237260;28;8772;-77
2022/01/27 13:35:00;;;;;;;;;69.25;59.50;;;;;;;;5237429;28;10135;-72
2022/01/27 13:37:33;;;;;;;;;67.50;52.50;;;;;;;;5270618;28;8780;-75
2022/01/27 13:42:55;;;;;;;;;72.00;58.67;;;;;;;;5253365;28;8788;-77
2022/01/27 13:45:26;;;;;;;;;85.00;66.00;;;;;;;;5236450;28;9013;-76
2022/01/27 13:48:15;;;;;;;;;73.00;62.33;;;;;;;;5270206;28;9145;-78
2022/01/27 13:50:56;;;;;;;;;77.33;63.00;;;;;;;;5236711;28;9282;-78
2022/01/27 13:53:27;;;;;;;;;79.25;63.50;;;;;;;;5253625;28;9141;-79
2022/01/27 13:56:04;;;;;;;;;68.00;55.00;;;;;;;;5239040;28;8780;-80
2022/01/27 13:58:38;;;;;;;;;67.50;54.00;;;;;;;;5271078;28;8787;-79
2022/01/27 14:01:13;;;;;;;;;64.75;52.00;;;;;;;;5237425;28;8769;-79
2022/01/27 14:03:45;;;;;;;;;39.25;31.00;;;;;;;;5237390;28;8784;-79
2022/01/27 14:06:17;;;;;;;;;60.00;50.50;;;;;;;;5237618;28;8950;-79
2022/01/27 14:08:56;;;;;;;;;83.67;65.67;;;;;;;;5237821;28;8784;-78
2022/01/27 14:11:36;;;;;;;;;54.50;48.25;;;;;;;;5255481;28;9723;-79
2022/01/27 14:14:10;;;;;;;;;33.50;31.50;;;;;;;;5274518;28;9629;-79
2022/01/27 14:16:42;;;;;;;;;45.50;44.50;;;;;;;;5257051;28;9542;-80
2022/01/27 14:19:14;;;;;;;;;57.50;47.75;;;;;;;;5240492;28;8761;-78
2022/01/27 14:21:46;;;;;;;;;55.25;46.75;;;;;;;;5274024;28;8769;-78
2022/01/27 14:24:21;;;;;;;;;54.50;48.50;;;;;;;;5256753;28;8857;-78
2022/01/27 14:27:03;;;;;;;;;47.75;44.00;;;;;;;;5240075;28;9502;-78
2022/01/27 14:29:53;;;;;;;;;66.50;50.50;;;;;;;;5259188;28;8772;-77
2022/01/27 14:32:25;;;;;;;;;49.50;45.25;;;;;;;;5239998;28;8785;-79
2022/01/27 14:34:56;;;;;;;;;44.50;41.75;;;;;;;;5256469;28;8756;-77
2022/01/27 14:37:27;;;;;;;;;52.75;48.50;;;;;;;;5240435;28;8914;-77
2022/01/27 14:40:01;;;;;;;;;56.50;49.00;;;;;;;;5239820;28;8841;-78
2022/01/27 14:42:35;;;;;;;;;41.50;40.00;;;;;;;;5240333;28;9431;-78
2022/01/27 14:45:07;;;;;;;;;69.50;58.00;;;;;;;;5256114;28;9483;-78
2022/01/27 14:47:43;;;;;;;;;65.25;54.00;;;;;;;;5256010;28;8950;-79
2022/01/27 14:50:33;;;;;;;;;66.00;53.50;;;;;;;;5259214;28;8826;-79
2022/01/27 14:53:05;;;;;;;;;57.00;49.00;;;;;;;;5242288;28;8784;-78
2022/01/27 14:55:36;;;;;;;;;37.25;34.75;;;;;;;;5263158;28;8768;-77
2022/01/27 14:58:07;;;;;;;;;66.00;49.00;;;;;;;;5249784;28;8768;-77
2022/01/27 15:00:38;;;;;;;;;37.33;35.67;;;;;;;;5243233;28;9107;-77
2022/01/27 15:03:09;;;;;;;;;54.75;48.25;;;;;;;;5272812;28;8845;-78
2022/01/27 15:10:09;;;;;;;;;43.50;40.00;;;;;;;;5290605;28;8780;-76
2022/01/27 15:12:59;;;;;;;;;40.00;36.50;;;;;;;;5258947;28;8765;-76
2022/01/27 15:21:09;;;;;;;;;41.00;38.75;;;;;;;;5256624;28;8768;-76
2022/01/27 15:23:42;;;;;;;;;35.25;31.00;;;;;;;;5239159;28;8833;-76
2022/01/27 15:26:13;;;;;;;;;33.75;32.50;;;;;;;;5239343;28;8776;-76
2022/01/27 15:28:45;;;;;;;;;26.00;25.25;;;;;;;;5256338;28;8797;-76
2022/01/27 15:31:16;;;;;;;;;38.00;34.25;;;;;;;;5275510;28;8760;-76
2022/01/27 15:33:47;;;;;;;;;25.50;25.00;;;;;;;;5260267;28;8799;-75
2022/01/27 15:36:22;;;;;;;;;31.75;28.00;;;;;;;;5243262;28;8777;-75
2022/01/27 15:38:54;;;;;;;;;32.00;30.25;;;;;;;;5243089;28;8768;-75
2022/01/27 15:41:45;;;;;;;;;26.00;26.00;;;;;;;;5262590;28;8868;-77
2022/01/27 15:48:40;;;;;;;;;22.67;16.67;;;;;;;;5298677;28;8899;-77
2022/01/27 15:51:31;;;;;;;;;55.00;48.50;;;;;;;;5257370;28;8849;-77
2022/01/27 15:54:03;;;;;;;;;50.50;42.50;;;;;;;;5255370;28;8789;-76
2022/01/27 15:56:35;;;;;;;;;41.25;37.50;;;;;;;;5238320;28;8791;-75
2022/01/27 15:59:26;;;;;;;;;43.25;38.25;;;;;;;;5257116;28;8780;-75
2022/01/27 16:01:57;;;;;;;;;31.50;29.00;;;;;;;;5255264;28;8769;-77
2022/01/27 16:04:28;;;;;;;;;30.75;28.25;;;;;;;;5255316;28;8829;-77
2022/01/27 16:07:01;;;;;;;;;53.75;47.25;;;;;;;;5238205;28;9569;-76
2022/01/27 16:09:32;;;;;;;;;46.75;42.00;;;;;;;;5237833;28;8804;-77
2022/01/27 16:16:26;;;;;;;;;36.00;31.00;;;;;;;;5289446;28;8697;-75
2022/01/27 16:18:57;;;;;;;;;46.50;42.50;;;;;;;;5238077;28;8777;-74
2022/01/27 16:21:28;;;;;;;;;41.00;40.00;;;;;;;;5237862;28;8784;-76
2022/01/27 16:24:00;;;;;;;;;43.75;42.00;;;;;;;;5237260;28;8784;-74
2022/01/27 16:26:31;;;;;;;;;45.00;40.00;;;;;;;;5237611;28;8840;-75
2022/01/27 16:29:02;;;;;;;;;28.50;26.50;;;;;;;;5237577;28;8784;-79
2022/01/27 16:31:34;;;;;;;;;37.75;35.75;;;;;;;;5237553;28;8819;-78
2022/01/27 16:34:05;;;;;;;;;44.50;44.25;;;;;;;;5237002;28;8773;-75
2022/01/27 16:36:54;;;;;;;;;41.75;39.00;;;;;;;;5257285;28;8800;-77
2022/01/27 16:39:44;;;;;;;;;17.00;15.25;;;;;;;;5256779;28;8765;-77